Time;durP1;ratioP1;P1;durP2;ratioP2;P2;SDS_P1;SDS_P2;PMS_P1;PMS_P2;Temp;Humidity;BMP_temperature;BMP_pressure;BME280_temperature;BME280_humidity;BME280_pressure;Samples;Min_cycle;Max_cycle;Signal;HPM_P1;HPM_P2
2022/04/23 00:01:13;;;;;;;1.50;1.40;;;;;;;5.86;100.00;100646.84;5043091;28;20427;-78
2022/04/23 00:03:46;;;;;;;1.60;1.40;;;;;;;6.00;100.00;100651.94;5038346;28;20421;-76
2022/04/23 00:06:16;;;;;;;1.40;1.30;;;;;;;6.11;100.00;100653.72;5042143;28;20419;-78
2022/04/23 00:08:49;;;;;;;1.47;1.37;;;;;;;5.96;100.00;100655.09;5041898;28;20435;-77
2022/04/23 00:11:22;;;;;;;1.58;1.40;;;;;;;5.93;100.00;100649.38;5037342;28;20461;-78
2022/04/23 00:13:56;;;;;;;1.42;1.33;;;;;;;5.94;100.00;100656.44;5044448;28;20771;-79
2022/04/23 00:16:30;;;;;;;1.70;1.60;;;;;;;5.88;100.00;100642.03;5040541;28;20414;-77
2022/04/23 00:19:04;;;;;;;1.60;1.50;;;;;;;5.81;100.00;100646.78;5048985;28;20413;-77
2022/04/23 00:21:38;;;;;;;1.60;1.50;;;;;;;5.82;100.00;100648.44;5046921;28;20420;-77
2022/04/23 00:24:07;;;;;;;1.60;1.50;;;;;;;5.72;100.00;100645.59;5036996;28;20417;-76
2022/04/23 00:26:40;;;;;;;1.70;1.60;;;;;;;5.59;100.00;100644.88;5034063;28;20427;-78
2022/04/23 00:29:14;;;;;;;1.60;1.50;;;;;;;5.61;100.00;100647.31;5050374;28;20433;-78
2022/04/23 00:31:47;;;;;;;1.70;1.60;;;;;;;5.50;100.00;100640.94;5041348;28;20445;-76
2022/04/23 00:34:22;;;;;;;1.70;1.60;;;;;;;5.52;100.00;100651.50;5054997;28;20408;-76
2022/04/23 00:36:57;;;;;;;1.55;1.45;;;;;;;5.47;100.00;100657.66;5044938;28;20432;-78
2022/04/23 00:39:30;;;;;;;1.80;1.70;;;;;;;5.48;100.00;100650.34;5040124;28;20417;-78
2022/04/23 00:42:08;;;;;;;1.87;1.60;;;;;;;5.36;100.00;100647.72;5036231;28;20426;-78
2022/04/23 00:44:41;;;;;;;1.88;1.75;;;;;;;5.35;100.00;100648.81;5041224;28;20937;-78
2022/04/23 00:47:09;;;;;;;1.90;1.80;;;;;;;5.45;100.00;100648.97;5031735;28;20434;-78
2022/04/23 00:49:38;;;;;;;1.63;1.52;;;;;;;5.36;100.00;100653.97;5047789;28;20421;-79
2022/04/23 00:52:12;;;;;;;1.60;1.50;;;;;;;5.23;100.00;100651.56;5043005;28;20763;-77
2022/04/23 00:54:41;;;;;;;1.60;1.50;;;;;;;5.22;100.00;100650.78;5046334;28;20417;-76
2022/04/23 00:57:14;;;;;;;1.42;1.33;;;;;;;5.24;100.00;100642.44;5039836;28;20959;-79
2022/04/23 00:59:49;;;;;;;1.60;1.50;;;;;;;5.13;100.00;100656.81;5044265;28;20431;-78
2022/04/23 01:02:23;;;;;;;1.50;1.40;;;;;;;5.04;100.00;100642.91;5044604;28;20428;-79
2022/04/23 01:04:56;;;;;;;1.70;1.43;;;;;;;5.07;100.00;100650.53;5056763;28;20411;-77
2022/04/23 01:07:31;;;;;;;1.55;1.45;;;;;;;5.05;100.00;100649.94;5053332;28;20420;-77
2022/04/23 01:10:05;;;;;;;1.70;1.50;;;;;;;5.00;100.00;100639.03;5041719;28;20419;-79
2022/04/23 01:12:39;;;;;;;1.90;1.60;;;;;;;5.02;100.00;100645.84;5048789;28;20443;-75
2022/04/23 01:15:14;;;;;;;1.70;1.60;;;;;;;4.96;100.00;100651.38;5042497;28;20427;-79
2022/04/23 01:17:49;;;;;;;1.90;1.80;;;;;;;4.98;100.00;100646.56;5050032;28;20420;-79
2022/04/23 01:20:20;;;;;;;2.20;2.00;;;;;;;4.85;100.00;100650.41;5042744;28;20417;-79
2022/04/23 01:22:53;;;;;;;1.95;1.85;;;;;;;4.83;100.00;100647.13;5048909;28;20423;-77
2022/04/23 01:25:26;;;;;;;2.20;1.98;;;;;;;4.92;100.00;100648.38;5043658;28;20907;-78
2022/04/23 01:27:56;;;;;;;2.60;2.40;;;;;;;4.92;100.00;100649.19;5042486;28;20410;-78
2022/04/23 01:30:29;;;;;;;2.60;2.40;;;;;;;4.80;100.00;100651.13;5058196;28;20425;-77
2022/04/23 01:33:02;;;;;;;2.70;2.50;;;;;;;4.82;100.00;100651.72;5047374;28;20425;-79
2022/04/23 01:35:32;;;;;;;3.75;3.35;;;;;;;4.79;100.00;100644.06;5046753;28;20912;-77
2022/04/23 01:38:05;;;;;;;3.30;3.10;;;;;;;4.81;100.00;100646.56;5054096;28;20431;-78
2022/04/23 01:40:38;;;;;;;3.80;3.50;;;;;;;4.78;100.00;100647.84;5043606;28;20438;-77
2022/04/23 01:43:11;;;;;;;3.97;3.67;;;;;;;4.74;100.00;100647.50;5042387;28;20430;-76
2022/04/23 01:45:45;;;;;;;5.03;4.53;;;;;;;4.77;100.00;100649.72;5037854;28;20423;-77
2022/04/23 01:48:13;;;;;;;5.00;4.60;;;;;;;4.71;100.00;100648.00;5048319;28;20413;-78
2022/04/23 01:50:47;;;;;;;5.43;4.93;;;;;;;4.70;100.00;100648.25;5054893;28;20409;-76
2022/04/23 01:53:16;;;;;;;5.78;5.28;;;;;;;4.68;100.00;100640.41;5056427;28;20419;-78
2022/04/23 01:55:51;;;;;;;5.95;5.45;;;;;;;4.68;100.00;100648.50;5046602;28;20428;-79
2022/04/23 01:58:24;;;;;;;6.18;5.68;;;;;;;4.63;100.00;100644.84;5049511;28;20429;-79
2022/04/23 02:00:59;;;;;;;5.38;4.97;;;;;;;4.51;100.00;100643.03;5060677;28;20425;-78
2022/04/23 02:03:29;;;;;;;6.13;5.63;;;;;;;4.48;100.00;100643.53;5049551;28;20916;-78
2022/04/23 02:06:04;;;;;;;6.07;5.57;;;;;;;4.51;100.00;100648.41;5045897;28;20428;-79
2022/04/23 02:08:37;;;;;;;6.10;5.60;;;;;;;4.51;100.00;100651.13;5042662;28;20415;-79
2022/04/23 02:11:06;;;;;;;6.57;6.07;;;;;;;4.45;100.00;100653.94;5044275;28;20763;-78
2022/04/23 02:13:40;;;;;;;7.03;6.50;;;;;;;4.40;100.00;100651.97;5042123;28;20430;-78
2022/04/23 02:16:13;;;;;;;7.95;7.35;;;;;;;4.38;100.00;100648.72;5043454;28;20423;-79
2022/04/23 02:18:46;;;;;;;9.27;8.57;;;;;;;4.42;100.00;100656.06;5056817;28;20424;-77
2022/04/23 02:21:15;;;;;;;9.32;8.63;;;;;;;4.33;100.00;100648.59;5041237;28;20423;-78
2022/04/23 02:23:49;;;;;;;10.45;9.75;;;;;;;4.34;100.00;100651.06;5044680;28;21025;-78
2022/04/23 02:26:17;;;;;;;10.25;9.55;;;;;;;4.26;100.00;100646.84;5042717;28;20953;-79
2022/04/23 02:28:51;;;;;;;10.25;9.55;;;;;;;4.17;100.00;100634.84;5040938;28;20425;-78
2022/04/23 02:31:24;;;;;;;9.73;9.03;;;;;;;4.29;100.00;100647.44;5044288;28;20784;-78
2022/04/23 02:33:58;;;;;;;9.77;9.07;;;;;;;4.30;100.00;100633.75;5043103;28;20799;-79
2022/04/23 02:36:32;;;;;;;10.20;9.50;;;;;;;4.22;100.00;100644.88;5050947;28;20430;-78
2022/04/23 02:39:06;;;;;;;10.30;9.60;;;;;;;4.19;100.00;100646.19;5039382;28;20757;-77
2022/04/23 02:41:34;;;;;;;9.80;9.10;;;;;;;4.11;100.00;100648.44;5040450;28;20454;-78
2022/04/23 02:44:07;;;;;;;10.23;9.52;;;;;;;4.12;100.00;100642.00;5060582;28;20936;-78
2022/04/23 02:46:40;;;;;;;8.98;8.27;;;;;;;4.07;100.00;100637.31;5044745;28;20425;-77
2022/04/23 02:49:13;;;;;;;9.23;8.52;;;;;;;4.10;100.00;100639.50;5060540;28;20428;-78
2022/04/23 02:51:48;;;;;;;8.77;8.18;;;;;;;4.05;100.00;100628.66;5050676;28;20422;-77
2022/04/23 02:54:21;;;;;;;9.35;8.65;;;;;;;4.06;100.00;100641.03;5035453;28;20427;-78
2022/04/23 02:56:55;;;;;;;9.47;8.77;;;;;;;4.00;100.00;100636.63;5041759;28;20815;-78
2022/04/23 02:59:28;;;;;;;9.52;8.82;;;;;;;3.97;100.00;100634.41;5044953;28;20421;-77
2022/04/23 03:02:01;;;;;;;10.35;9.65;;;;;;;3.99;100.00;100643.06;5046991;28;20751;-79
2022/04/23 03:04:29;;;;;;;11.20;10.40;;;;;;;3.99;100.00;100643.91;5071112;28;20426;-77
2022/04/23 03:07:05;;;;;;;10.35;9.65;;;;;;;3.83;100.00;100634.66;5044377;28;20430;-78
2022/04/23 03:09:38;;;;;;;10.80;10.00;;;;;;;3.98;100.00;100642.25;5045057;28;20422;-79
2022/04/23 03:12:12;;;;;;;11.32;10.52;;;;;;;3.87;100.00;100640.41;5036176;28;20422;-78
2022/04/23 03:14:45;;;;;;;12.30;11.50;;;;;;;3.81;100.00;100644.84;5040797;28;20429;-77
2022/04/23 03:17:18;;;;;;;11.65;10.85;;;;;;;3.75;100.00;100638.50;5041602;28;20415;-79
2022/04/23 03:19:53;;;;;;;13.23;12.32;;;;;;;3.68;100.00;100637.81;5050292;28;20421;-78
2022/04/23 03:22:23;;;;;;;15.20;14.20;;;;;;;3.59;100.00;100636.56;5043243;28;20427;-77
2022/04/23 03:24:56;;;;;;;17.38;16.27;;;;;;;3.66;100.00;100639.94;5043338;28;20790;-77
2022/04/23 03:27:30;;;;;;;21.70;20.40;;;;;;;3.68;100.00;100637.81;5044348;28;20475;-78
2022/04/23 03:30:05;;;;;;;20.88;19.67;;;;;;;3.62;100.00;100633.38;5040146;28;20422;-77
2022/04/23 03:32:38;;;;;;;23.95;22.55;;;;;;;3.64;100.00;100641.22;5046031;28;20419;-77
2022/04/23 03:35:11;;;;;;;25.50;24.00;;;;;;;3.59;100.00;100644.63;5052025;28;20424;-77
2022/04/23 03:37:41;;;;;;;28.05;26.45;;;;;;;3.60;100.00;100643.56;5045353;28;20437;-76
2022/04/23 03:40:15;;;;;;;30.33;28.63;;;;;;;3.63;100.00;100640.38;5048989;28;20420;-78
2022/04/23 03:42:48;;;;;;;27.55;25.95;;;;;;;3.64;100.00;100638.53;5041812;28;20409;-78
2022/04/23 03:45:23;;;;;;;26.83;25.23;;;;;;;3.72;100.00;100640.88;5042927;28;20427;-77
2022/04/23 03:47:56;;;;;;;23.52;22.13;;;;;;;3.71;100.00;100641.91;5051042;28;20884;-77
2022/04/23 03:50:30;;;;;;;21.73;20.43;;;;;;;3.73;100.00;100651.41;5047333;28;20413;-76
2022/04/23 03:53:04;;;;;;;21.42;20.13;;;;;;;3.63;100.00;100650.34;5049213;28;20425;-78
2022/04/23 03:55:38;;;;;;;20.88;19.67;;;;;;;3.58;100.00;100651.88;5038911;28;20889;-77
2022/04/23 03:58:12;;;;;;;22.10;20.80;;;;;;;3.48;100.00;100648.13;5040619;28;20428;-78
2022/04/23 04:00:45;;;;;;;20.38;19.17;;;;;;;3.49;100.00;100644.38;5045018;28;20762;-78
2022/04/23 04:03:18;;;;;;;20.17;18.97;;;;;;;3.40;100.00;100650.09;5037830;28;21000;-76
2022/04/23 04:05:51;;;;;;;22.48;21.17;;;;;;;3.35;100.00;100641.09;5048714;28;20766;-77
2022/04/23 04:08:21;;;;;;;27.45;25.85;;;;;;;3.37;100.00;100645.19;5041383;28;20423;-78
2022/04/23 04:10:54;;;;;;;30.67;28.95;;;;;;;3.43;100.00;100648.81;5037642;28;20447;-77
2022/04/23 04:13:27;;;;;;;33.72;31.83;;;;;;;3.42;100.00;100654.44;5038909;28;20427;-77
2022/04/23 04:16:00;;;;;;;30.30;28.60;;;;;;;3.40;100.00;100641.22;5039460;28;20423;-77
2022/04/23 04:18:33;;;;;;;26.90;25.40;;;;;;;3.52;100.00;100651.97;5053862;28;20417;-77
2022/04/23 04:21:07;;;;;;;21.48;20.17;;;;;;;3.35;100.00;100641.91;5047418;28;20755;-76
2022/04/23 04:23:41;;;;;;;24.55;23.15;;;;;;;3.42;100.00;100654.44;5044065;28;21125;-78
2022/04/23 04:26:14;;;;;;;23.10;21.70;;;;;;;3.44;100.00;100650.47;5040222;28;20420;-79
2022/04/23 04:28:48;;;;;;;22.15;20.85;;;;;;;3.40;100.00;100654.69;5039031;28;20419;-78
2022/04/23 04:34:12;;;;;;;22.35;21.05;;;;;;;3.38;100.00;100649.53;5047660;28;20414;-78
2022/04/23 04:36:46;;;;;;;22.98;21.58;;;;;;;3.42;100.00;100649.88;5046400;28;20436;-78
2022/04/23 04:39:21;;;;;;;22.90;21.60;;;;;;;3.53;100.00;100651.75;5038914;28;20433;-77
2022/04/23 04:41:54;;;;;;;22.65;21.33;;;;;;;3.49;100.00;100652.44;5037132;28;20434;-78
2022/04/23 04:44:28;;;;;;;20.30;19.10;;;;;;;3.53;100.00;100645.56;5044629;28;20415;-78
2022/04/23 04:46:56;;;;;;;19.25;18.05;;;;;;;3.44;100.00;100646.94;5054896;28;20431;-78
2022/04/23 04:49:29;;;;;;;17.52;16.42;;;;;;;3.56;100.00;100651.28;5050138;28;20420;-77
2022/04/23 04:52:03;;;;;;;16.35;15.35;;;;;;;3.56;100.00;100655.84;5047184;28;20444;-78
2022/04/23 04:54:38;;;;;;;17.77;16.60;;;;;;;3.62;100.00;100646.00;5036468;28;20412;-77
2022/04/23 04:57:11;;;;;;;16.20;15.20;;;;;;;3.65;100.00;100653.63;5035723;28;20910;-77
2022/04/23 04:59:40;;;;;;;17.58;16.48;;;;;;;3.70;100.00;100646.50;5043746;28;20432;-77
2022/04/23 05:02:13;;;;;;;17.33;16.23;;;;;;;3.96;100.00;100648.91;5049892;28;20845;-78
2022/04/23 05:04:46;;;;;;;16.33;15.32;;;;;;;5.40;100.00;100663.19;5045806;28;20413;-78
2022/04/23 05:07:19;;;;;;;6.80;6.30;;;;;;;6.67;100.00;100668.94;5033409;28;20433;-78
2022/04/23 05:09:54;;;;;;;3.15;2.85;;;;;;;7.30;100.00;100664.69;5047002;28;20421;-78
2022/04/23 05:12:27;;;;;;;2.20;1.88;;;;;;;7.68;100.00;100666.56;5039434;28;20419;-78
2022/04/23 05:15:00;;;;;;;2.28;2.10;;;;;;;7.91;100.00;100668.09;5041497;28;20055;-78
2022/04/23 05:17:37;;;;;;;2.50;2.30;;;;;;;8.80;100.00;100666.31;5037481;28;20046;-80
2022/04/23 05:20:07;;;;;;;3.65;2.63;;;;;;;7.95;100.00;100671.91;5051141;28;20048;-80
2022/04/23 05:22:40;;;;;;;2.10;1.90;;;;;;;6.86;100.00;100677.53;5042842;28;20053;-78
2022/04/23 05:25:14;;;;;;;2.08;1.88;;;;;;;6.56;100.00;100679.66;5040792;28;20797;-77
2022/04/23 05:27:47;;;;;;;2.05;1.85;;;;;;;6.38;100.00;100677.25;5035303;28;20374;-77
2022/04/23 05:30:21;;;;;;;2.28;2.08;;;;;;;6.04;100.00;100674.69;5041435;28;20058;-77
2022/04/23 05:32:54;;;;;;;2.30;2.10;;;;;;;5.73;100.00;100687.72;5054813;28;20060;-77
2022/04/23 05:35:27;;;;;;;2.80;2.60;;;;;;;5.67;100.00;100689.53;5049725;28;20045;-78
2022/04/23 05:38:00;;;;;;;3.10;2.80;;;;;;;5.72;100.00;100695.00;5039142;28;20053;-79
2022/04/23 05:40:35;;;;;;;4.38;3.50;;;;;;;5.82;100.00;100696.22;5035901;28;20049;-78
2022/04/23 05:43:08;;;;;;;4.28;3.97;;;;;;;5.73;100.00;100688.53;5039925;28;20068;-78
2022/04/23 05:45:43;;;;;;;5.82;5.38;;;;;;;5.78;100.00;100688.59;5039000;28;20409;-79
2022/04/23 05:48:16;;;;;;;8.05;7.43;;;;;;;5.89;100.00;100686.06;5043005;28;20053;-77
2022/04/23 05:50:49;;;;;;;9.68;8.98;;;;;;;5.92;100.00;100688.25;5052299;28;20397;-78
2022/04/23 05:53:22;;;;;;;13.00;12.15;;;;;;;6.09;100.00;100680.13;5043544;28;20053;-78
2022/04/23 05:55:53;;;;;;;19.48;18.30;;;;;;;6.22;100.00;100692.50;5044564;28;20049;-78
2022/04/23 05:58:26;;;;;;;21.17;19.92;;;;;;;6.33;100.00;100691.53;5042170;28;20052;-78
2022/04/23 06:00:59;;;;;;;30.15;28.45;;;;;;;6.43;100.00;100696.25;5048856;28;20048;-78
2022/04/23 06:03:33;;;;;;;31.38;29.65;;;;;;;6.56;100.00;100700.47;5046194;28;20033;-78
2022/04/23 06:06:06;;;;;;;36.53;34.50;;;;;;;6.61;100.00;100701.34;5043719;28;20541;-78
2022/04/23 06:08:42;;;;;;;52.90;50.05;;;;;;;6.67;100.00;100701.41;5044888;28;20060;-79
2022/04/23 06:11:16;;;;;;;41.78;39.45;;;;;;;6.78;100.00;100703.16;5046322;28;20056;-78
2022/04/23 06:13:44;;;;;;;50.20;47.50;;;;;;;6.83;100.00;100697.00;5039170;28;20069;-78
2022/04/23 06:16:17;;;;;;;53.20;50.33;;;;;;;6.96;100.00;100700.09;5047820;28;20055;-78
2022/04/23 06:18:50;;;;;;;50.75;47.97;;;;;;;7.13;100.00;100699.19;5050807;28;20394;-78
2022/04/23 06:21:24;;;;;;;58.15;55.00;;;;;;;7.25;100.00;100712.53;5058703;28;20056;-77
2022/04/23 06:23:57;;;;;;;74.63;70.63;;;;;;;7.40;100.00;100703.75;5042830;28;20036;-77
2022/04/23 06:26:32;;;;;;;82.30;77.93;;;;;;;7.58;100.00;100707.94;5047471;28;20485;-78
2022/04/23 06:29:06;;;;;;;115.13;109.13;;;;;;;7.80;100.00;100703.25;5042874;28;20039;-77
2022/04/23 06:31:39;;;;;;;96.20;91.15;;;;;;;8.02;100.00;100706.91;5073739;28;20049;-77
2022/04/23 06:34:07;;;;;;;100.70;95.40;;;;;;;8.21;100.00;100696.44;5047500;28;20060;-78
2022/04/23 06:36:41;;;;;;;58.67;55.50;;;;;;;8.50;100.00;100699.59;5054056;28;20036;-77
2022/04/23 06:39:15;;;;;;;34.38;32.47;;;;;;;8.73;100.00;100700.19;5043625;28;20045;-79
2022/04/23 06:41:49;;;;;;;23.35;21.95;;;;;;;8.88;100.00;100692.09;5044115;28;20040;-76
2022/04/23 06:44:22;;;;;;;16.63;15.63;;;;;;;9.04;100.00;100700.28;5042543;28;20052;-79
2022/04/23 06:46:55;;;;;;;12.68;11.88;;;;;;;9.18;100.00;100707.63;5046739;28;20049;-78
2022/04/23 06:49:29;;;;;;;7.30;6.80;;;;;;;9.26;100.00;100698.13;5050419;28;20060;-79
2022/04/23 06:51:57;;;;;;;3.95;3.65;;;;;;;9.35;100.00;100696.50;5045559;28;20041;-79
2022/04/23 06:54:30;;;;;;;3.70;3.40;;;;;;;9.49;100.00;100695.97;5045934;28;20040;-78
2022/04/23 06:57:00;;;;;;;3.35;3.15;;;;;;;9.67;100.00;100694.59;5039510;28;20041;-77
2022/04/23 06:59:34;;;;;;;2.38;2.20;;;;;;;9.74;100.00;100706.00;5045245;28;20056;-77
2022/04/23 07:02:07;;;;;;;2.25;2.10;;;;;;;9.94;100.00;100699.69;5050854;28;20394;-78
2022/04/23 07:04:40;;;;;;;2.10;2.00;;;;;;;10.02;100.00;100690.97;5047637;28;20033;-77
2022/04/23 07:07:10;;;;;;;1.83;1.73;;;;;;;10.21;100.00;100698.56;5049926;28;20045;-77
2022/04/23 07:09:44;;;;;;;1.80;1.70;;;;;;;10.31;100.00;100695.00;5048748;28;20371;-82
2022/04/23 07:12:14;;;;;;;1.70;1.60;;;;;;;10.41;100.00;100692.25;5051391;28;20136;-78
2022/04/23 07:14:48;;;;;;;2.00;1.80;;;;;;;10.66;100.00;100694.06;5048577;28;20048;-77
2022/04/23 07:17:16;;;;;;;1.73;1.63;;;;;;;10.68;100.00;100685.63;5039100;28;20700;-78
2022/04/23 07:19:50;;;;;;;1.25;1.17;;;;;;;10.52;100.00;100691.13;5044277;28;20056;-76
2022/04/23 07:22:24;;;;;;;1.40;1.30;;;;;;;10.78;100.00;100690.19;5038619;28;20490;-77
2022/04/23 07:24:57;;;;;;;1.00;1.00;;;;;;;10.76;100.00;100689.63;5042716;28;20053;-80
2022/04/23 07:27:27;;;;;;;1.10;1.00;;;;;;;10.86;100.00;100681.44;5040862;28;20409;-78
2022/04/23 07:29:55;;;;;;;1.10;1.00;;;;;;;10.95;100.00;100685.19;5043994;28;20073;-78
2022/04/23 07:32:28;;;;;;;1.23;1.00;;;;;;;11.13;100.00;100686.44;5054401;28;20054;-77
2022/04/23 07:37:52;;;;;;;0.98;0.90;;;;;;;11.02;100.00;100684.84;5041046;28;20061;-78
2022/04/23 07:40:25;;;;;;;1.10;1.00;;;;;;;11.03;100.00;100681.88;5048622;28;20045;-77
2022/04/23 07:43:00;;;;;;;1.20;1.00;;;;;;;11.00;100.00;100679.69;5038766;28;20045;-77
2022/04/23 07:45:33;;;;;;;1.05;0.95;;;;;;;11.23;100.00;100680.09;5050372;28;20052;-77
2022/04/23 07:48:08;;;;;;;0.88;0.85;;;;;;;11.40;93.21;100680.47;5038656;28;20053;-79
2022/04/23 07:50:43;;;;;;;1.10;1.00;;;;;;;11.38;94.03;100681.88;5040931;28;20052;-79
2022/04/23 07:53:16;;;;;;;1.20;1.00;;;;;;;11.51;91.49;100677.69;5047957;28;20049;-78
2022/04/23 07:55:49;;;;;;;1.10;1.00;;;;;;;11.74;98.67;100679.63;5045591;28;20410;-80
2022/04/23 07:58:19;;;;;;;0.88;0.80;;;;;;;11.62;81.47;100673.75;5031319;28;20052;-78
2022/04/23 08:00:52;;;;;;;1.20;0.98;;;;;;;11.54;93.16;100671.66;5037471;28;20577;-79
2022/04/23 08:03:25;;;;;;;0.90;0.90;;;;;;;11.91;100.00;100664.75;5027813;28;20060;-79
2022/04/23 08:05:59;;;;;;;1.10;1.00;;;;;;;12.01;99.36;100674.75;5051411;28;20052;-80
2022/04/23 08:08:28;;;;;;;0.82;0.82;;;;;;;11.96;81.33;100667.47;5027109;28;20583;-80
2022/04/23 08:11:01;;;;;;;1.35;1.00;;;;;;;12.00;100.00;100673.13;5030644;28;20052;-79
2022/04/23 08:13:36;;;;;;;0.88;0.88;;;;;;;11.95;87.75;100676.75;5026420;28;20045;-79
2022/04/23 08:16:05;;;;;;;1.02;0.90;;;;;;;11.98;97.69;100676.16;5030456;28;20808;-79
2022/04/23 08:18:33;;;;;;;1.20;1.10;;;;;;;12.02;93.48;100669.03;5024482;28;20067;-77
2022/04/23 08:21:06;;;;;;;1.00;0.90;;;;;;;12.14;100.00;100670.53;5031272;28;20057;-80
2022/04/23 08:23:40;;;;;;;1.08;0.98;;;;;;;12.23;75.78;100668.78;5027445;28;20671;-79
2022/04/23 08:26:13;;;;;;;0.90;0.90;;;;;;;12.06;74.55;100672.78;5031039;28;20052;-79
2022/04/23 08:31:38;;;;;;;1.10;1.00;;;;;;;12.18;72.16;100671.56;5031336;28;20048;-79
2022/04/23 08:34:07;;;;;;;1.17;1.08;;;;;;;12.16;78.61;100666.41;5039156;28;20053;-79
2022/04/23 08:36:36;;;;;;;1.17;1.08;;;;;;;12.31;78.32;100662.69;5044055;28;20052;-78
2022/04/23 08:39:09;;;;;;;1.35;1.13;;;;;;;12.13;90.36;100649.81;5041654;28;20049;-79
2022/04/23 08:41:45;;;;;;;1.80;1.00;;;;;;;12.07;86.09;100651.81;5048626;28;20048;-77
2022/04/23 08:44:16;;;;;;;1.15;1.00;;;;;;;12.28;77.89;100657.00;5037960;28;20069;-80
2022/04/23 08:46:54;;;;;;;1.00;0.90;;;;;;;12.72;86.77;100659.41;5050285;28;20053;-79
2022/04/23 08:49:31;;;;;;;1.10;1.00;;;;;;;13.00;87.63;100653.28;5035325;28;20054;-79
2022/04/23 08:52:09;;;;;;;1.10;1.00;;;;;;;13.03;95.75;100649.97;5044505;28;20041;-79
2022/04/23 08:54:38;;;;;;;1.20;1.10;;;;;;;13.17;98.28;100652.75;5044449;28;20055;-79
2022/04/23 08:57:12;;;;;;;2.70;1.15;;;;;;;13.07;82.90;100649.06;5052901;28;20049;-78
2022/04/23 08:59:51;;;;;;;1.52;1.10;;;;;;;13.11;79.63;100635.63;5045048;28;20045;-79
2022/04/23 09:02:19;;;;;;;1.50;1.13;;;;;;;13.26;100.00;100643.56;5043882;28;20055;-78
2022/04/23 09:04:47;;;;;;;1.00;0.90;;;;;;;13.26;76.96;100637.31;5051076;28;20049;-80
2022/04/23 09:07:23;;;;;;;1.42;1.00;;;;;;;13.31;89.73;100644.59;5049434;28;20049;-80
2022/04/23 09:09:58;;;;;;;1.45;1.10;;;;;;;13.33;71.65;100635.00;5038012;28;20049;-79
2022/04/23 09:12:31;;;;;;;1.00;0.90;;;;;;;13.09;70.34;100635.94;5054039;28;20047;-80
2022/04/23 09:23:43;;;;;;;1.00;0.90;;;;;;;13.23;74.95;100619.56;5046135;28;20044;-77
2022/04/23 09:26:18;;;;;;;1.52;1.10;;;;;;;13.54;87.89;100618.25;5058279;28;20401;-79
2022/04/23 09:28:51;;;;;;;1.15;1.02;;;;;;;13.61;71.65;100615.94;5041832;28;20064;-77
2022/04/23 09:31:26;;;;;;;1.17;1.08;;;;;;;13.50;77.15;100630.91;5042818;28;20041;-78
2022/04/23 09:33:59;;;;;;;1.10;1.00;;;;;;;13.54;83.97;100619.06;5041281;28;20438;-78
2022/04/23 09:36:47;;;;;;;1.30;1.10;;;;;;;13.67;78.41;100624.84;5046479;28;20072;-79
2022/04/23 09:39:30;;;;;;;0.98;0.90;;;;;;;13.73;82.84;100612.72;5040493;28;20052;-79
2022/04/23 09:42:12;;;;;;;1.25;1.10;;;;;;;13.44;65.16;100617.31;5041005;28;20037;-79
2022/04/23 09:44:46;;;;;;;1.23;1.00;;;;;;;13.08;64.63;100609.72;5042602;28;20053;-77
2022/04/23 09:47:31;;;;;;;2.28;1.02;;;;;;;12.79;64.95;100609.06;5051187;28;20043;-78
2022/04/23 09:50:05;;;;;;;0.95;0.85;;;;;;;13.02;61.46;100615.53;5045847;28;20045;-78
2022/04/23 09:52:39;;;;;;;1.48;0.90;;;;;;;12.82;70.56;100595.66;5052910;28;20057;-79
2022/04/23 09:55:13;;;;;;;1.10;1.00;;;;;;;13.03;64.59;100600.78;5044941;28;20064;-79
2022/04/23 09:57:45;;;;;;;1.52;1.10;;;;;;;13.12;77.99;100598.16;5044067;28;20044;-76
2022/04/23 10:00:18;;;;;;;1.20;1.10;;;;;;;13.51;74.97;100600.53;5037551;28;20059;-78
2022/04/23 10:02:59;;;;;;;1.13;1.00;;;;;;;13.53;60.43;100598.28;5052623;28;20044;-79
2022/04/23 10:05:34;;;;;;;1.05;0.95;;;;;;;13.39;69.69;100605.66;5055549;28;20045;-79
2022/04/23 10:08:12;;;;;;;1.13;1.02;;;;;;;13.60;78.20;100596.00;5047443;28;20057;-77
2022/04/23 10:10:44;;;;;;;1.10;1.00;;;;;;;13.58;77.41;100600.94;5046225;28;20056;-80
2022/04/23 10:13:19;;;;;;;4.60;1.10;;;;;;;13.82;78.99;100588.19;5049008;28;20044;-77
2022/04/23 10:15:54;;;;;;;1.75;1.20;;;;;;;13.87;72.63;100597.09;5037074;28;20045;-78
2022/04/23 10:18:28;;;;;;;1.73;1.10;;;;;;;13.87;79.77;100594.38;5054907;28;20052;-79
2022/04/23 10:21:08;;;;;;;1.10;1.00;;;;;;;14.07;78.04;100593.16;5048908;28;20362;-79
2022/04/23 10:23:51;;;;;;;1.80;1.30;;;;;;;13.63;70.31;100593.75;5047595;28;20052;-80
2022/04/23 10:26:38;;;;;;;1.00;0.90;;;;;;;13.79;71.30;100595.09;5055538;28;20065;-79
2022/04/23 10:29:14;;;;;;;1.10;1.00;;;;;;;14.35;62.76;100589.53;5044479;28;20053;-77
2022/04/23 10:31:43;;;;;;;1.17;1.08;;;;;;;14.70;78.00;100587.97;5052901;28;20036;-78
2022/04/23 10:34:34;;;;;;;1.40;1.15;;;;;;;14.36;73.06;100582.97;5048828;28;20057;-80
2022/04/23 10:37:15;;;;;;;1.08;0.98;;;;;;;14.36;66.59;100583.78;5051359;28;20042;-77
2022/04/23 10:40:15;;;;;;;1.50;1.20;;;;;;;14.08;71.16;100580.28;5036695;28;20045;-79
2022/04/23 10:43:07;;;;;;;1.10;1.00;;;;;;;13.81;61.80;100590.13;5045737;28;20052;-79
2022/04/23 10:45:41;;;;;;;1.40;1.10;;;;;;;14.18;66.11;100579.25;5042140;28;20037;-78
2022/04/23 10:48:29;;;;;;;1.20;1.10;;;;;;;14.16;67.01;100582.28;5050834;28;20059;-77
2022/04/23 10:51:07;;;;;;;1.13;1.02;;;;;;;14.37;72.83;100582.66;5048317;28;20048;-76
2022/04/23 10:53:55;;;;;;;1.30;1.10;;;;;;;14.21;76.26;100575.91;5050856;28;20485;-77
2022/04/23 10:56:34;;;;;;;;;;;;;;;14.59;78.30;100575.59;5044484;28;20111;-76
2022/04/23 10:59:39;;;;;;;2.25;0.98;;;;;;;14.51;71.80;100579.88;5044883;28;19920;-79
2022/04/23 11:02:14;;;;;;;1.33;1.10;;;;;;;14.65;69.66;100584.53;5048573;28;20040;-78
2022/04/23 11:14:45;;;;;;;2.03;1.10;;;;;;;14.53;65.76;100553.00;5006184;28;20052;-79
2022/04/23 11:17:22;;;;;;;1.25;1.15;;;;;;;14.71;61.48;100542.22;5047378;28;20072;-80
2022/04/23 11:19:56;;;;;;;1.23;1.10;;;;;;;15.11;68.44;100548.59;5021360;28;20060;-80
2022/04/23 11:22:30;;;;;;;1.60;1.20;;;;;;;15.38;76.42;100548.75;5027488;28;20045;-81
2022/04/23 11:25:05;;;;;;;1.20;1.10;;;;;;;14.91;67.28;100547.19;5027165;28;20036;-80
2022/04/23 11:27:38;;;;;;;1.20;1.10;;;;;;;14.63;69.47;100550.03;5024771;28;21295;-79
2022/04/23 11:30:12;;;;;;;1.20;1.08;;;;;;;14.67;66.17;100541.22;5030564;28;20056;-78
2022/04/23 11:32:45;;;;;;;1.65;1.13;;;;;;;14.98;75.77;100548.69;5021188;28;20665;-78
2022/04/23 11:35:28;;;;;;;1.45;1.15;;;;;;;15.21;89.05;100544.78;5020108;28;20710;-79
2022/04/23 11:38:05;;;;;;;1.23;1.10;;;;;;;15.30;69.40;100529.19;5026379;28;21333;-79
2022/04/23 11:40:36;;;;;;;1.10;1.00;;;;;;;15.28;58.80;100519.66;5022824;28;20053;-79
2022/04/23 11:43:09;;;;;;;1.17;1.08;;;;;;;15.12;75.90;100533.78;5025794;28;20064;-79
2022/04/23 11:45:47;;;;;;;1.63;1.10;;;;;;;14.83;68.27;100526.03;5024075;28;20056;-79
2022/04/23 11:48:20;;;;;;;1.40;1.05;;;;;;;14.59;58.66;100526.31;5028075;28;20044;-79
2022/04/23 11:50:48;;;;;;;1.20;1.05;;;;;;;14.31;55.28;100514.63;5021600;28;20079;-80
2022/04/23 11:53:21;;;;;;;1.40;1.00;;;;;;;14.72;65.17;100511.78;5033120;28;20055;-79
2022/04/23 11:55:56;;;;;;;1.15;1.05;;;;;;;14.76;61.54;100517.44;5024853;28;20057;-77
2022/04/23 11:58:29;;;;;;;1.38;1.10;;;;;;;14.65;57.14;100503.16;5023367;28;20064;-78
2022/04/23 12:01:03;;;;;;;1.20;1.10;;;;;;;14.69;62.45;100503.38;5025542;28;20067;-79
2022/04/23 12:03:36;;;;;;;1.50;1.00;;;;;;;14.63;68.11;100497.22;5022582;28;20059;-80
2022/04/23 12:06:10;;;;;;;1.50;1.20;;;;;;;14.78;67.02;100505.03;5024726;28;20057;-79
2022/04/23 12:08:43;;;;;;;1.27;1.15;;;;;;;15.41;74.78;100499.56;5034920;28;20058;-79
2022/04/23 12:11:26;;;;;;;2.05;1.40;;;;;;;15.21;66.61;100484.47;5021090;28;20099;-78
2022/04/23 12:14:02;;;;;;;1.17;1.08;;;;;;;14.79;70.30;100492.19;5027961;28;20397;-80
2022/04/23 12:16:41;;;;;;;1.35;1.25;;;;;;;14.80;73.63;100485.56;5027752;28;20048;-78
2022/04/23 12:19:16;;;;;;;1.98;1.45;;;;;;;15.39;88.54;100481.81;5021328;28;20065;-78